Peary Spirit — C6YM3 — position and weather

sailwx.info

Track history (hours):
 
Tides and Currents Weather Stations Pressure Air Temp Water Temp Dewpoint Dewpoint Depression Visibility Wind Speed Wind Dir Waves Ship Positions

Peary Spirit

Last reported at 2018-Feb-19 21:30 UTC. Time now 2018-Feb-20 01:20 UTC.
Position N 57°50' E 010°21'.

Length 249 m; draft 9.5 m.

Type: Ship (hazmat cat A). MMSI: 311027600.

Date/timePositionNaut miles runAvg speedWind from/ knotsBaromVisibWave heightAir tempDewpointWater temp
2018-Feb-19 21:30N 57°50' E 010°21'816.9
2018-Feb-19 21:00N 57°50' E 010°37'816.0
2018-Feb-19 20:30N 57°47' E 010°50'815.8
2018-Feb-19 20:00N 57°42' E 011°02'713.7
2018-Feb-19 19:30N 57°35' E 011°05'1 1.0
2018-Feb-19 18:58N 57°35' E 011°04'0 0.0
2018-Feb-19 18:28N 57°35' E 011°04'0 0.0
2018-Feb-19 17:58N 57°35' E 011°04'0 0.0
2018-Feb-19 17:28N 57°35' E 011°04'0 0.0
2018-Feb-19 16:58N 57°35' E 011°04'0 0.0
2018-Feb-19 16:25N 57°35' E 011°04'0 0.0
2018-Feb-19 15:58N 57°35' E 011°04'0 0.0
2018-Feb-19 15:28N 57°35' E 011°04'0 0.0
2018-Feb-19 14:58N 57°35' E 011°04'0 0.0
2018-Feb-19 14:25N 57°35' E 011°04'0 0.0
2018-Feb-19 13:55N 57°35' E 011°04'0 0.0
2018-Feb-19 13:28N 57°35' E 011°04'0 0.0
2018-Feb-19 12:58N 57°35' E 011°04'0 0.0
2018-Feb-19 12:28N 57°35' E 011°04'0 0.0
2018-Feb-19 11:58N 57°35' E 011°04'0 0.2
2018-Feb-19 11:28N 57°35' E 011°04'0 0.4
2018-Feb-19 10:58N 57°35' E 011°04'0 0.2
2018-Feb-19 10:28N 57°35' E 011°04'0 0.1
2018-Feb-19 09:58N 57°35' E 011°04'0 0.2
2018-Feb-19 09:30N 57°35' E 011°04'3 6.9
2018-Feb-19 09:00N 57°35' E 011°10'612.7
2018-Feb-19 08:30N 57°31' E 011°21'816.0
2018-Feb-19 08:00N 57°24' E 011°28'816.1
2018-Feb-19 07:30N 57°17' E 011°33'816.1
2018-Feb-19 07:00N 57°09' E 011°38'816.2
2018-Feb-19 06:30N 57°02' E 011°43'916.5
2018-Feb-19 05:59N 56°54' E 011°49'9115.5
2018-Feb-19 00:07N 55°27' E 010°57'216.6
2018-Feb-19 00:00N 55°26' E 010°58'816.6
2018-Feb-18 23:30N 55°18' E 011°03'815.7
2018-Feb-18 23:00N 55°10' E 011°03'817.0
2018-Feb-18 22:30N 55°02' E 011°00'917.3
2018-Feb-18 22:00N 54°55' E 010°52'917.9
2018-Feb-18 21:30N 54°46' E 010°49'714.0
2018-Feb-18 21:00N 54°40' E 010°55'817.0
2018-Feb-18 20:30N 54°37' E 011°09'816.7
2018-Feb-18 20:00N 54°33' E 011°22'816.4
2018-Feb-18 19:30N 54°30' E 011°35'816.0
2018-Feb-18 19:00N 54°27' E 011°48'816.6
2018-Feb-18 18:30N 54°27' E 012°02'1414.4
2018-Feb-18 17:31N 54°37' E 012°19'5616.1
2018-Feb-18 14:02N 55°00' E 013°48'016.0
2018-Feb-18 14:00N 55°00' E 013°48'916.0
2018-Feb-18 13:27N 55°03' E 014°03'715.9
2018-Feb-18 13:00N 55°07' E 014°13'815.9
2018-Feb-18 12:30N 55°11' E 014°26'815.1
2018-Feb-18 12:00N 55°16' E 014°36'713.6
2018-Feb-18 11:30N 55°20' E 014°45'611.8
2018-Feb-18 11:01N 55°18' E 014°55'714.8
2018-Feb-18 10:30N 55°16' E 015°08'815.9
2018-Feb-18 10:01N 55°15' E 015°22'815.3
2018-Feb-18 09:31N 55°14' E 015°35'8615.1
2018-Feb-18 03:50N 55°04' E 018°04'816.2
2018-Feb-18 03:22N 55°04' E 018°17'616.2
2018-Feb-18 03:00N 55°03' E 018°28'815.4
2018-Feb-18 02:29N 54°59' E 018°39'816.2
2018-Feb-18 02:00N 54°53' E 018°49'816.7
2018-Feb-18 01:30N 54°47' E 018°59'816.3
2018-Feb-18 01:00N 54°40' E 019°06'714.8
2018-Feb-18 00:30N 54°32' E 019°04'713.9
2018-Feb-18 00:00N 54°26' E 018°59'613.0
2018-Feb-17 23:30N 54°25' E 018°48'3 5.4
2018-Feb-17 22:58N 54°24' E 018°43'0 0.0
2018-Feb-17 22:28N 54°24' E 018°43'0 0.0
2018-Feb-17 21:58N 54°24' E 018°43'0 0.0
2018-Feb-17 21:28N 54°24' E 018°43'0 0.0
2018-Feb-17 20:58N 54°24' E 018°43'0 0.0
2018-Feb-17 20:28N 54°24' E 018°43'0 0.0
2018-Feb-17 19:58N 54°24' E 018°43'0 0.0
2018-Feb-17 19:25N 54°24' E 018°43'0 0.0
2018-Feb-17 18:58N 54°24' E 018°43'0 0.0
2018-Feb-17 18:28N 54°24' E 018°43'0 0.0
2018-Feb-17 17:58N 54°24' E 018°43'0 0.0
2018-Feb-17 17:25N 54°24' E 018°43'0 0.0
2018-Feb-17 16:58N 54°24' E 018°43'0 0.0
2018-Feb-17 16:28N 54°24' E 018°43'0 0.0
2018-Feb-17 15:58N 54°24' E 018°43'0 0.0
2018-Feb-17 15:25N 54°24' E 018°43'0 0.0
2018-Feb-17 14:58N 54°24' E 018°43'0 0.0
2018-Feb-17 14:28N 54°24' E 018°43'0 0.0
2018-Feb-17 13:58N 54°24' E 018°43'0 0.0
2018-Feb-17 13:28N 54°24' E 018°43'0 0.0
2018-Feb-17 12:55N 54°24' E 018°43'0 0.0
2018-Feb-17 12:25N 54°24' E 018°43'0 0.0
2018-Feb-17 11:58N 54°24' E 018°43'0 0.0
2018-Feb-17 11:28N 54°24' E 018°43'0 0.0
2018-Feb-17 10:58N 54°24' E 018°43'0 0.0
2018-Feb-17 10:22N 54°24' E 018°43'0 0.0
2018-Feb-17 09:58N 54°24' E 018°43'0 0.0
2018-Feb-17 09:28N 54°24' E 018°43'0 0.0
2018-Feb-17 08:58N 54°24' E 018°43'0 0.0
2018-Feb-17 08:28N 54°24' E 018°43'0 0.0
2018-Feb-17 07:58N 54°24' E 018°43'0 0.0
2018-Feb-17 07:28N 54°24' E 018°43'0 0.0
2018-Feb-17 06:58N 54°24' E 018°43'0 0.0
2018-Feb-17 06:28N 54°24' E 018°43'0 0.0
2018-Feb-17 05:58N 54°24' E 018°43'0 0.0
2018-Feb-17 05:28N 54°24' E 018°43'0 0.0
2018-Feb-17 04:58N 54°24' E 018°43'0 0.0
2018-Feb-17 04:28N 54°24' E 018°43'0 0.0
2018-Feb-17 03:58N 54°24' E 018°43'0 0.0
2018-Feb-17 03:28N 54°24' E 018°43'0 0.0
2018-Feb-17 02:58N 54°24' E 018°43'0 0.0
2018-Feb-17 02:25N 54°24' E 018°43'0 0.0
2018-Feb-17 01:58N 54°24' E 018°43'0 0.0
2018-Feb-17 01:28N 54°24' E 018°43'0 0.0
2018-Feb-17 00:55N 54°24' E 018°43'0 0.0
2018-Feb-17 00:28N 54°24' E 018°43'0 0.0
2018-Feb-16 23:58N 54°24' E 018°43'0 0.0
2018-Feb-16 23:28N 54°24' E 018°43'0 0.0
2018-Feb-16 22:58N 54°24' E 018°43'0 0.0
2018-Feb-16 22:28N 54°24' E 018°43'0 0.0
2018-Feb-16 21:58N 54°24' E 018°43'0 0.0
2018-Feb-16 21:30N 54°24' E 018°43'0 0.0
2018-Feb-16 20:59N 54°24' E 018°43'1 1.1
2018-Feb-16 20:30N 54°24' E 018°44'2 3.8
2018-Feb-16 20:00N 54°25' E 018°47'3 6.9
2018-Feb-16 19:30N 54°26' E 018°52'2 3.7
2018-Feb-16 18:59N 54°28' E 018°54'0 0.2
2018-Feb-16 18:29N 54°28' E 018°54'0 0.0
2018-Feb-16 17:59N 54°28' E 018°54'0 0.0
2018-Feb-16 17:29N 54°28' E 018°54'0 0.0
2018-Feb-16 16:59N 54°28' E 018°54'0 0.1
2018-Feb-16 16:29N 54°28' E 018°54'0 0.0
2018-Feb-16 15:56N 54°28' E 018°54'0 0.0
2018-Feb-16 15:29N 54°28' E 018°54'0 0.0
2018-Feb-16 14:59N 54°28' E 018°54'0 0.1
2018-Feb-16 14:30N 54°28' E 018°54'0 0.1
2018-Feb-16 14:00N 54°28' E 018°54'1 2.5
2018-Feb-16 13:30N 54°27' E 018°55'4 7.2
2018-Feb-16 13:00N 54°30' E 018°59'510.7
2018-Feb-16 12:30N 54°35' E 019°03'510.3
2018-Feb-16 12:00N 54°40' E 019°03'610.9
2018-Feb-16 11:30N 54°45' E 018°59'511.2
2018-Feb-16 11:00N 54°49' E 018°53'611.0
2018-Feb-16 10:30N 54°53' E 018°47'511.2
2018-Feb-16 10:00N 54°58' E 018°41'611.1
2018-Feb-16 09:30N 55°02' E 018°34'510.5
2018-Feb-16 09:00N 55°03' E 018°26'711.3
2018-Feb-16 08:25N 55°04' E 018°14'511.3
2018-Feb-16 08:00N 55°05' E 018°06'8011.4
2018-Feb-16 00:59N 55°13' E 015°47'711.4
2018-Feb-16 00:24N 55°14' E 015°35'511.4
2018-Feb-15 23:59N 55°14' E 015°27'611.3
2018-Feb-15 23:29N 55°15' E 015°17'511.0
2018-Feb-15 23:00N 55°16' E 015°08'611.1
2018-Feb-15 22:30N 55°18' E 014°59'510.9
2018-Feb-15 22:00N 55°19' E 014°50'4 8.6
2018-Feb-15 21:30N 55°18' E 014°42'713.2
2018-Feb-15 21:00N 55°14' E 014°33'613.0
2018-Feb-15 20:30N 55°10' E 014°25'712.9
2018-Feb-15 20:00N 55°05' E 014°17'713.1
2018-Feb-15 19:30N 55°01' E 014°08'6912.5
2018-Feb-15 13:57N 54°34' E 012°17'612.9
2018-Feb-15 13:30N 54°29' E 012°13'1110.9
2018-Feb-15 12:28N 54°25' E 011°55'612.5
2018-Feb-15 12:00N 54°25' E 011°45'612.8
2018-Feb-15 11:30N 54°28' E 011°36'612.7
2018-Feb-15 11:00N 54°31' E 011°26'612.3
2018-Feb-15 10:30N 54°33' E 011°16'611.4
2018-Feb-15 10:00N 54°35' E 011°07'612.2
2018-Feb-15 09:30N 54°37' E 010°57'612.8
2018-Feb-15 09:00N 54°40' E 010°47'611.5
2018-Feb-15 08:30N 54°46' E 010°48'611.3
2018-Feb-15 08:00N 54°51' E 010°50'510.8
2018-Feb-15 07:30N 54°56' E 010°53'510.8
2018-Feb-15 07:00N 55°01' E 010°59'612.0
2018-Feb-15 06:30N 55°07' E 010°59'611.3
2018-Feb-15 06:00N 55°12' E 011°04'510.5
2018-Feb-15 05:30N 55°17' E 011°03'9410.8
2018-Feb-14 20:47N 56°48' E 011°50'711.7
2018-Feb-14 20:12N 56°54' E 011°46'311.8
2018-Feb-14 19:56N 56°57' E 011°44'612.2
2018-Feb-14 19:28N 57°02' E 011°41'612.8
2018-Feb-14 19:00N 57°08' E 011°37'613.0
2018-Feb-14 18:30N 57°14' E 011°33'611.5
2018-Feb-14 18:00N 57°19' E 011°29'612.4
2018-Feb-14 17:30N 57°25' E 011°25'612.6
2018-Feb-14 17:00N 57°30' E 011°19'612.3
2018-Feb-14 16:30N 57°35' E 011°10'612.1
2018-Feb-14 16:00N 57°39' E 011°02'612.2
2018-Feb-14 15:30N 57°42' E 010°53'4 7.4
2018-Feb-14 15:00N 57°43' E 010°46'2 4.3
2018-Feb-14 14:30N 57°46' E 010°46'4 8.2
2018-Feb-14 14:00N 57°47' E 010°39'510.9
2018-Feb-14 13:30N 57°46' E 010°29'711.8
2018-Feb-14 12:55N 57°46' E 010°16'8215.1
2018-Feb-14 07:29N 57°41' E 007°42'713.7
2018-Feb-14 06:59N 57°42' E 007°30'713.5
2018-Feb-14 06:29N 57°42' E 007°17'713.7
2018-Feb-14 05:59N 57°42' E 007°04'713.4
2018-Feb-14 05:28N 57°43' E 006°51'713.9
2018-Feb-14 05:00N 57°43' E 006°39'713.6
2018-Feb-14 04:30N 57°44' E 006°27'713.3
2018-Feb-14 03:59N 57°47' E 006°14'713.0
2018-Feb-14 03:29N 57°49' E 006°03'  
2018-Feb-11 13:53N 58°50' E 004°27'512.1
2018-Feb-11 13:30N 58°51' E 004°36'611.7
2018-Feb-11 13:00N 58°52' E 004°47'610.9
2018-Feb-11 12:30N 58°50' E 004°57'3 5.1
2018-Feb-11 12:00N 58°49' E 005°02'1 1.1
2018-Feb-11 11:30N 58°50' E 005°02'1 1.2
2018-Feb-11 11:00N 58°51' E 005°01'0 0.9
2018-Feb-11 10:30N 58°51' E 005°01'0 1.0
2018-Feb-11 10:00N 58°51' E 005°01'0 0.7
2018-Feb-11 09:30N 58°52' E 005°01'0 0.9
2018-Feb-11 09:00N 58°52' E 005°01'0 0.9
2018-Feb-11 08:30N 58°53' E 005°00'1 1.5
2018-Feb-11 08:00N 58°53' E 004°60'1 1.3
2018-Feb-11 07:30N 58°54' E 004°59'1 1.5
2018-Feb-11 07:00N 58°55' E 004°59'610.9
2018-Feb-11 06:29N 58°49' E 004°59'714.2
2018-Feb-11 06:01N 58°42' E 004°59'713.8
2018-Feb-11 05:31N 58°35' E 004°59'813.6
2018-Feb-11 04:57N 58°28' E 004°59'17713.5
2018-Feb-10 15:47N 55°38' E 006°34'410.5
2018-Feb-10 15:27N 55°35' E 006°38'2 4.0
2018-Feb-10 15:00N 55°34' E 006°39'3 4.2
2018-Feb-10 14:13N 55°30' E 006°38'1 5.5
2018-Feb-10 14:00N 55°30' E 006°37'2 4.0
2018-Feb-10 13:26N 55°28' E 006°35'1 3.2
2018-Feb-10 13:00N 55°27' E 006°36'4 8.2
2018-Feb-10 12:30N 55°23' E 006°38'714.2
2018-Feb-10 12:00N 55°16' E 006°42'714.3
2018-Feb-10 11:30N 55°09' E 006°46'714.3
2018-Feb-10 11:00N 55°02' E 006°49'714.4
2018-Feb-10 10:30N 54°56' E 006°54'714.4
2018-Feb-10 10:00N 54°49' E 006°59'714.5
2018-Feb-10 09:30N 54°42' E 007°04'5913.7
2018-Feb-10 05:13N 53°50' E 007°51'314.8
2018-Feb-10 05:00N 53°49' E 007°56'612.8
2018-Feb-10 04:30N 53°44' E 008°03'713.4
2018-Feb-10 04:00N 53°38' E 008°08'5 9.7
2018-Feb-10 03:30N 53°34' E 008°10'  
Track history (hours):
 
Tides and Currents Weather Stations Pressure Air Temp Water Temp Dewpoint Dewpoint Depression Visibility Wind Speed Wind Dir Waves Ship Positions

Peary Spirit

Last reported at 2018-Feb-19 21:30 UTC. Time now 2018-Feb-20 01:20 UTC.
Position N 57°50' E 010°21'.

Length 249 m; draft 9.5 m.

Type: Ship (hazmat cat A). MMSI: 311027600.

Date/timePositionNaut miles runAvg speedWind from/ knotsBaromVisibWave heightAir tempDewpointWater temp
2018-Feb-19 21:30N 57°50' E 010°21'816.9
2018-Feb-19 21:00N 57°50' E 010°37'816.0
2018-Feb-19 20:30N 57°47' E 010°50'815.8
2018-Feb-19 20:00N 57°42' E 011°02'713.7
2018-Feb-19 19:30N 57°35' E 011°05'1 1.0
2018-Feb-19 18:58N 57°35' E 011°04'0 0.0
2018-Feb-19 18:28N 57°35' E 011°04'0 0.0
2018-Feb-19 17:58N 57°35' E 011°04'0 0.0
2018-Feb-19 17:28N 57°35' E 011°04'0 0.0
2018-Feb-19 16:58N 57°35' E 011°04'0 0.0
2018-Feb-19 16:25N 57°35' E 011°04'0 0.0
2018-Feb-19 15:58N 57°35' E 011°04'0 0.0
2018-Feb-19 15:28N 57°35' E 011°04'0 0.0
2018-Feb-19 14:58N 57°35' E 011°04'0 0.0
2018-Feb-19 14:25N 57°35' E 011°04'0 0.0
2018-Feb-19 13:55N 57°35' E 011°04'0 0.0
2018-Feb-19 13:28N 57°35' E 011°04'0 0.0
2018-Feb-19 12:58N 57°35' E 011°04'0 0.0
2018-Feb-19 12:28N 57°35' E 011°04'0 0.0
2018-Feb-19 11:58N 57°35' E 011°04'0 0.2
2018-Feb-19 11:28N 57°35' E 011°04'0 0.4
2018-Feb-19 10:58N 57°35' E 011°04'0 0.2
2018-Feb-19 10:28N 57°35' E 011°04'0 0.1
2018-Feb-19 09:58N 57°35' E 011°04'0 0.2
2018-Feb-19 09:30N 57°35' E 011°04'3 6.9
2018-Feb-19 09:00N 57°35' E 011°10'612.7
2018-Feb-19 08:30N 57°31' E 011°21'816.0
2018-Feb-19 08:00N 57°24' E 011°28'816.1
2018-Feb-19 07:30N 57°17' E 011°33'816.1
2018-Feb-19 07:00N 57°09' E 011°38'816.2
2018-Feb-19 06:30N 57°02' E 011°43'916.5
2018-Feb-19 05:59N 56°54' E 011°49'9115.5
2018-Feb-19 00:07N 55°27' E 010°57'216.6
2018-Feb-19 00:00N 55°26' E 010°58'816.6
2018-Feb-18 23:30N 55°18' E 011°03'815.7
2018-Feb-18 23:00N 55°10' E 011°03'817.0
2018-Feb-18 22:30N 55°02' E 011°00'917.3
2018-Feb-18 22:00N 54°55' E 010°52'917.9
2018-Feb-18 21:30N 54°46' E 010°49'714.0
2018-Feb-18 21:00N 54°40' E 010°55'817.0
2018-Feb-18 20:30N 54°37' E 011°09'816.7
2018-Feb-18 20:00N 54°33' E 011°22'816.4
2018-Feb-18 19:30N 54°30' E 011°35'816.0
2018-Feb-18 19:00N 54°27' E 011°48'816.6
2018-Feb-18 18:30N 54°27' E 012°02'1414.4
2018-Feb-18 17:31N 54°37' E 012°19'5616.1
2018-Feb-18 14:02N 55°00' E 013°48'016.0
2018-Feb-18 14:00N 55°00' E 013°48'916.0
2018-Feb-18 13:27N 55°03' E 014°03'715.9
2018-Feb-18 13:00N 55°07' E 014°13'815.9
2018-Feb-18 12:30N 55°11' E 014°26'815.1
2018-Feb-18 12:00N 55°16' E 014°36'713.6
2018-Feb-18 11:30N 55°20' E 014°45'611.8
2018-Feb-18 11:01N 55°18' E 014°55'714.8
2018-Feb-18 10:30N 55°16' E 015°08'815.9
2018-Feb-18 10:01N 55°15' E 015°22'815.3
2018-Feb-18 09:31N 55°14' E 015°35'8615.1
2018-Feb-18 03:50N 55°04' E 018°04'816.2
2018-Feb-18 03:22N 55°04' E 018°17'616.2
2018-Feb-18 03:00N 55°03' E 018°28'815.4
2018-Feb-18 02:29N 54°59' E 018°39'816.2
2018-Feb-18 02:00N 54°53' E 018°49'816.7
2018-Feb-18 01:30N 54°47' E 018°59'816.3
2018-Feb-18 01:00N 54°40' E 019°06'714.8
2018-Feb-18 00:30N 54°32' E 019°04'713.9
2018-Feb-18 00:00N 54°26' E 018°59'613.0
2018-Feb-17 23:30N 54°25' E 018°48'3 5.4
2018-Feb-17 22:58N 54°24' E 018°43'0 0.0
2018-Feb-17 22:28N 54°24' E 018°43'0 0.0
2018-Feb-17 21:58N 54°24' E 018°43'0 0.0
2018-Feb-17 21:28N 54°24' E 018°43'0 0.0
2018-Feb-17 20:58N 54°24' E 018°43'0 0.0
2018-Feb-17 20:28N 54°24' E 018°43'0 0.0
2018-Feb-17 19:58N 54°24' E 018°43'0 0.0
2018-Feb-17 19:25N 54°24' E 018°43'0 0.0
2018-Feb-17 18:58N 54°24' E 018°43'0 0.0
2018-Feb-17 18:28N 54°24' E 018°43'0 0.0
2018-Feb-17 17:58N 54°24' E 018°43'0 0.0
2018-Feb-17 17:25N 54°24' E 018°43'0 0.0
2018-Feb-17 16:58N 54°24' E 018°43'0 0.0
2018-Feb-17 16:28N 54°24' E 018°43'0 0.0
2018-Feb-17 15:58N 54°24' E 018°43'0 0.0
2018-Feb-17 15:25N 54°24' E 018°43'0 0.0
2018-Feb-17 14:58N 54°24' E 018°43'0 0.0
2018-Feb-17 14:28N 54°24' E 018°43'0 0.0
2018-Feb-17 13:58N 54°24' E 018°43'0 0.0
2018-Feb-17 13:28N 54°24' E 018°43'0 0.0
2018-Feb-17 12:55N 54°24' E 018°43'0 0.0
2018-Feb-17 12:25N 54°24' E 018°43'0 0.0
2018-Feb-17 11:58N 54°24' E 018°43'0 0.0
2018-Feb-17 11:28N 54°24' E 018°43'0 0.0
2018-Feb-17 10:58N 54°24' E 018°43'0 0.0
2018-Feb-17 10:22N 54°24' E 018°43'0 0.0
2018-Feb-17 09:58N 54°24' E 018°43'0 0.0
2018-Feb-17 09:28N 54°24' E 018°43'0 0.0
2018-Feb-17 08:58N 54°24' E 018°43'0 0.0
2018-Feb-17 08:28N 54°24' E 018°43'0 0.0
2018-Feb-17 07:58N 54°24' E 018°43'0 0.0
2018-Feb-17 07:28N 54°24' E 018°43'0 0.0
2018-Feb-17 06:58N 54°24' E 018°43'0 0.0
2018-Feb-17 06:28N 54°24' E 018°43'0 0.0
2018-Feb-17 05:58N 54°24' E 018°43'0 0.0
2018-Feb-17 05:28N 54°24' E 018°43'0 0.0
2018-Feb-17 04:58N 54°24' E 018°43'0 0.0
2018-Feb-17 04:28N 54°24' E 018°43'0 0.0
2018-Feb-17 03:58N 54°24' E 018°43'0 0.0
2018-Feb-17 03:28N 54°24' E 018°43'0 0.0
2018-Feb-17 02:58N 54°24' E 018°43'0 0.0
2018-Feb-17 02:25N 54°24' E 018°43'0 0.0
2018-Feb-17 01:58N 54°24' E 018°43'0 0.0
2018-Feb-17 01:28N 54°24' E 018°43'0 0.0
2018-Feb-17 00:55N 54°24' E 018°43'0 0.0
2018-Feb-17 00:28N 54°24' E 018°43'0 0.0
2018-Feb-16 23:58N 54°24' E 018°43'0 0.0
2018-Feb-16 23:28N 54°24' E 018°43'0 0.0
2018-Feb-16 22:58N 54°24' E 018°43'0 0.0
2018-Feb-16 22:28N 54°24' E 018°43'0 0.0
2018-Feb-16 21:58N 54°24' E 018°43'0 0.0
2018-Feb-16 21:30N 54°24' E 018°43'0 0.0
2018-Feb-16 20:59N 54°24' E 018°43'1 1.1
2018-Feb-16 20:30N 54°24' E 018°44'2 3.8
2018-Feb-16 20:00N 54°25' E 018°47'3 6.9
2018-Feb-16 19:30N 54°26' E 018°52'2 3.7
2018-Feb-16 18:59N 54°28' E 018°54'0 0.2
2018-Feb-16 18:29N 54°28' E 018°54'0 0.0
2018-Feb-16 17:59N 54°28' E 018°54'0 0.0
2018-Feb-16 17:29N 54°28' E 018°54'0 0.0
2018-Feb-16 16:59N 54°28' E 018°54'0 0.1
2018-Feb-16 16:29N 54°28' E 018°54'0 0.0
2018-Feb-16 15:56N 54°28' E 018°54'0 0.0
2018-Feb-16 15:29N 54°28' E 018°54'0 0.0
2018-Feb-16 14:59N 54°28' E 018°54'0 0.1
2018-Feb-16 14:30N 54°28' E 018°54'0 0.1
2018-Feb-16 14:00N 54°28' E 018°54'1 2.5
2018-Feb-16 13:30N 54°27' E 018°55'4 7.2
2018-Feb-16 13:00N 54°30' E 018°59'510.7
2018-Feb-16 12:30N 54°35' E 019°03'510.3
2018-Feb-16 12:00N 54°40' E 019°03'610.9
2018-Feb-16 11:30N 54°45' E 018°59'511.2
2018-Feb-16 11:00N 54°49' E 018°53'611.0
2018-Feb-16 10:30N 54°53' E 018°47'511.2
2018-Feb-16 10:00N 54°58' E 018°41'611.1
2018-Feb-16 09:30N 55°02' E 018°34'510.5
2018-Feb-16 09:00N 55°03' E 018°26'711.3
2018-Feb-16 08:25N 55°04' E 018°14'511.3
2018-Feb-16 08:00N 55°05' E 018°06'8011.4
2018-Feb-16 00:59N 55°13' E 015°47'711.4
2018-Feb-16 00:24N 55°14' E 015°35'511.4
2018-Feb-15 23:59N 55°14' E 015°27'611.3
2018-Feb-15 23:29N 55°15' E 015°17'511.0
2018-Feb-15 23:00N 55°16' E 015°08'611.1
2018-Feb-15 22:30N 55°18' E 014°59'510.9
2018-Feb-15 22:00N 55°19' E 014°50'4 8.6
2018-Feb-15 21:30N 55°18' E 014°42'713.2
2018-Feb-15 21:00N 55°14' E 014°33'613.0
2018-Feb-15 20:30N 55°10' E 014°25'712.9
2018-Feb-15 20:00N 55°05' E 014°17'713.1
2018-Feb-15 19:30N 55°01' E 014°08'6912.5
2018-Feb-15 13:57N 54°34' E 012°17'612.9
2018-Feb-15 13:30N 54°29' E 012°13'1110.9
2018-Feb-15 12:28N 54°25' E 011°55'612.5
2018-Feb-15 12:00N 54°25' E 011°45'612.8
2018-Feb-15 11:30N 54°28' E 011°36'612.7
2018-Feb-15 11:00N 54°31' E 011°26'612.3
2018-Feb-15 10:30N 54°33' E 011°16'611.4
2018-Feb-15 10:00N 54°35' E 011°07'612.2
2018-Feb-15 09:30N 54°37' E 010°57'612.8
2018-Feb-15 09:00N 54°40' E 010°47'611.5
2018-Feb-15 08:30N 54°46' E 010°48'611.3
2018-Feb-15 08:00N 54°51' E 010°50'510.8
2018-Feb-15 07:30N 54°56' E 010°53'510.8
2018-Feb-15 07:00N 55°01' E 010°59'612.0
2018-Feb-15 06:30N 55°07' E 010°59'611.3
2018-Feb-15 06:00N 55°12' E 011°04'510.5
2018-Feb-15 05:30N 55°17' E 011°03'9410.8
2018-Feb-14 20:47N 56°48' E 011°50'711.7
2018-Feb-14 20:12N 56°54' E 011°46'311.8
2018-Feb-14 19:56N 56°57' E 011°44'612.2
2018-Feb-14 19:28N 57°02' E 011°41'612.8
2018-Feb-14 19:00N 57°08' E 011°37'613.0
2018-Feb-14 18:30N 57°14' E 011°33'611.5
2018-Feb-14 18:00N 57°19' E 011°29'612.4
2018-Feb-14 17:30N 57°25' E 011°25'612.6
2018-Feb-14 17:00N 57°30' E 011°19'612.3
2018-Feb-14 16:30N 57°35' E 011°10'612.1
2018-Feb-14 16:00N 57°39' E 011°02'612.2
2018-Feb-14 15:30N 57°42' E 010°53'4 7.4
2018-Feb-14 15:00N 57°43' E 010°46'2 4.3
2018-Feb-14 14:30N 57°46' E 010°46'4 8.2
2018-Feb-14 14:00N 57°47' E 010°39'510.9
2018-Feb-14 13:30N 57°46' E 010°29'711.8
2018-Feb-14 12:55N 57°46' E 010°16'8215.1
2018-Feb-14 07:29N 57°41' E 007°42'713.7
2018-Feb-14 06:59N 57°42' E 007°30'713.5
2018-Feb-14 06:29N 57°42' E 007°17'713.7
2018-Feb-14 05:59N 57°42' E 007°04'713.4
2018-Feb-14 05:28N 57°43' E 006°51'713.9
2018-Feb-14 05:00N 57°43' E 006°39'713.6
2018-Feb-14 04:30N 57°44' E 006°27'713.3
2018-Feb-14 03:59N 57°47' E 006°14'713.0
2018-Feb-14 03:29N 57°49' E 006°03'  
2018-Feb-11 13:53N 58°50' E 004°27'512.1
2018-Feb-11 13:30N 58°51' E 004°36'611.7
2018-Feb-11 13:00N 58°52' E 004°47'610.9
2018-Feb-11 12:30N 58°50' E 004°57'3 5.1
2018-Feb-11 12:00N 58°49' E 005°02'1 1.1
2018-Feb-11 11:30N 58°50' E 005°02'1 1.2
2018-Feb-11 11:00N 58°51' E 005°01'0 0.9
2018-Feb-11 10:30N 58°51' E 005°01'0 1.0
2018-Feb-11 10:00N 58°51' E 005°01'0 0.7
2018-Feb-11 09:30N 58°52' E 005°01'0 0.9
2018-Feb-11 09:00N 58°52' E 005°01'0 0.9
2018-Feb-11 08:30N 58°53' E 005°00'1 1.5
2018-Feb-11 08:00N 58°53' E 004°60'1 1.3
2018-Feb-11 07:30N 58°54' E 004°59'1 1.5
2018-Feb-11 07:00N 58°55' E 004°59'610.9
2018-Feb-11 06:29N 58°49' E 004°59'714.2
2018-Feb-11 06:01N 58°42' E 004°59'713.8
2018-Feb-11 05:31N 58°35' E 004°59'813.6
2018-Feb-11 04:57N 58°28' E 004°59'17713.5
2018-Feb-10 15:47N 55°38' E 006°34'410.5
2018-Feb-10 15:27N 55°35' E 006°38'2 4.0
2018-Feb-10 15:00N 55°34' E 006°39'3 4.2
2018-Feb-10 14:13N 55°30' E 006°38'1 5.5
2018-Feb-10 14:00N 55°30' E 006°37'2 4.0
2018-Feb-10 13:26N 55°28' E 006°35'1 3.2
2018-Feb-10 13:00N 55°27' E 006°36'4 8.2
2018-Feb-10 12:30N 55°23' E 006°38'714.2
2018-Feb-10 12:00N 55°16' E 006°42'714.3
2018-Feb-10 11:30N 55°09' E 006°46'714.3
2018-Feb-10 11:00N 55°02' E 006°49'714.4
2018-Feb-10 10:30N 54°56' E 006°54'714.4
2018-Feb-10 10:00N 54°49' E 006°59'714.5
2018-Feb-10 09:30N 54°42' E 007°04'5913.7
2018-Feb-10 05:13N 53°50' E 007°51'314.8
2018-Feb-10 05:00N 53°49' E 007°56'612.8
2018-Feb-10 04:30N 53°44' E 008°03'713.4
2018-Feb-10 04:00N 53°38' E 008°08'5 9.7
2018-Feb-10 03:30N 53°34' E 008°10'  

Dump ship's entire track history